createdAt,value
2022-12-25T00:00:24.013Z,3.33
2022-12-25T00:00:55.538Z,3.14
2022-12-25T00:01:26.988Z,3.06
2022-12-25T00:01:58.416Z,3.30
2022-12-25T00:02:29.950Z,2.87
2022-12-25T00:03:01.509Z,2.74
2022-12-25T00:03:33.086Z,2.93
2022-12-25T00:04:04.621Z,3.34
2022-12-25T00:04:36.066Z,2.08
2022-12-25T00:05:07.467Z,2.95
2022-12-25T00:05:38.983Z,2.78
2022-12-25T00:06:10.434Z,3.04
2022-12-25T00:06:41.841Z,2.96
2022-12-25T00:07:13.240Z,3.06
2022-12-25T00:07:44.652Z,3.16
2022-12-25T00:08:16.062Z,3.21
2022-12-25T00:08:47.451Z,2.87
2022-12-25T00:09:18.871Z,3.13
2022-12-25T00:09:50.281Z,2.86
2022-12-25T00:10:21.707Z,2.73
2022-12-25T00:10:53.119Z,2.62
2022-12-25T00:11:24.518Z,2.86
2022-12-25T00:11:55.921Z,2.76
2022-12-25T00:12:27.319Z,2.41
2022-12-25T00:12:58.727Z,2.09
2022-12-25T00:13:30.135Z,2.58
2022-12-25T00:14:01.548Z,3.04
2022-12-25T00:14:32.952Z,2.73
2022-12-25T00:15:04.355Z,3.12
2022-12-25T00:15:35.763Z,2.50
2022-12-25T00:16:07.308Z,2.67
2022-12-25T00:16:38.766Z,3.04
2022-12-25T00:17:10.185Z,2.80
2022-12-25T00:17:41.606Z,2.64
2022-12-25T00:18:13.009Z,2.61
2022-12-25T00:18:44.435Z,2.41
2022-12-25T00:19:15.855Z,2.65
2022-12-25T00:19:47.253Z,2.49
2022-12-25T00:20:18.653Z,3.21
2022-12-25T00:20:50.058Z,2.93
2022-12-25T00:21:21.568Z,2.73
2022-12-25T00:21:52.990Z,2.87
2022-12-25T00:22:24.399Z,2.46
2022-12-25T00:22:55.789Z,2.34
2022-12-25T00:23:27.200Z,2.88
2022-12-25T00:23:58.668Z,3.06
2022-12-25T00:24:30.085Z,2.40
2022-12-25T00:25:01.486Z,2.50
2022-12-25T00:25:32.893Z,2.45
2022-12-25T00:26:04.312Z,2.08
2022-12-25T00:26:35.746Z,2.66
2022-12-25T00:27:07.140Z,2.58
2022-12-25T00:27:38.562Z,2.15
2022-12-25T00:28:10.003Z,2.15
2022-12-25T00:28:41.417Z,2.64
2022-12-25T00:29:12.813Z,2.51
2022-12-25T00:29:44.230Z,2.88
2022-12-25T00:30:15.652Z,2.77
2022-12-25T00:30:47.064Z,2.61
2022-12-25T00:31:18.550Z,2.68
2022-12-25T00:31:50.176Z,2.55
2022-12-25T00:32:21.675Z,2.47
2022-12-25T00:32:53.096Z,2.53
2022-12-25T00:33:24.495Z,2.87
2022-12-25T00:33:55.898Z,2.83
2022-12-25T00:34:27.340Z,2.50
2022-12-25T00:34:58.754Z,2.51
2022-12-25T00:35:30.149Z,2.66
2022-12-25T00:36:01.565Z,2.33
2022-12-25T00:36:39.512Z,2.66
2022-12-25T00:37:12.984Z,2.54
2022-12-25T00:37:44.382Z,2.06
2022-12-25T00:38:15.794Z,2.40
2022-12-25T00:38:47.231Z,2.13
2022-12-25T00:39:18.641Z,2.32
2022-12-25T00:39:50.056Z,2.67
2022-12-25T00:40:21.480Z,2.69
2022-12-25T00:40:52.949Z,2.17
2022-12-25T00:41:24.373Z,1.73
2022-12-25T00:41:55.783Z,2.04
2022-12-25T00:42:27.311Z,2.48
2022-12-25T00:42:58.728Z,2.30
2022-12-25T00:43:30.152Z,2.43
2022-12-25T00:44:01.547Z,2.41
2022-12-25T00:44:32.965Z,3.33
2022-12-25T00:45:04.354Z,2.49
2022-12-25T00:45:35.788Z,2.74
2022-12-25T00:46:07.274Z,2.52
2022-12-25T00:46:38.762Z,2.39
2022-12-25T00:47:10.201Z,2.31
2022-12-25T00:47:41.680Z,2.51
2022-12-25T00:48:13.092Z,2.61
2022-12-25T00:48:44.504Z,2.48
2022-12-25T00:49:15.908Z,2.41
2022-12-25T00:49:47.373Z,2.30
2022-12-25T00:50:18.801Z,2.26
2022-12-25T00:50:50.203Z,2.08
2022-12-25T00:51:21.604Z,2.55
2022-12-25T00:51:53.011Z,2.31
2022-12-25T00:52:24.415Z,2.70
2022-12-25T00:52:55.870Z,2.33
2022-12-25T00:53:27.268Z,2.44
2022-12-25T00:53:58.703Z,2.21
2022-12-25T00:54:30.133Z,2.49
2022-12-25T00:55:01.545Z,2.46
2022-12-25T00:55:32.958Z,2.33
2022-12-25T00:56:04.358Z,2.47
2022-12-25T00:56:35.767Z,2.38
2022-12-25T00:57:07.172Z,2.28
2022-12-25T00:57:38.584Z,2.45
2022-12-25T00:58:10.104Z,2.30
2022-12-25T00:58:41.562Z,2.22
2022-12-25T00:59:12.958Z,2.17
2022-12-25T00:59:44.359Z,2.47
2022-12-25T01:00:15.762Z,2.48
2022-12-25T01:00:47.189Z,2.17
2022-12-25T01:01:18.772Z,2.35
2022-12-25T01:01:50.452Z,2.66
2022-12-25T01:02:22.121Z,2.67
2022-12-25T01:02:53.851Z,2.29
2022-12-25T01:03:25.582Z,1.86
2022-12-25T01:03:57.036Z,1.94
2022-12-25T01:04:28.438Z,2.24
2022-12-25T01:04:59.847Z,2.52
2022-12-25T01:05:31.263Z,2.44
2022-12-25T01:06:02.673Z,2.47
2022-12-25T01:06:34.091Z,2.22
2022-12-25T01:07:05.498Z,1.93
2022-12-25T01:07:36.995Z,2.30
2022-12-25T01:08:08.409Z,2.52
2022-12-25T01:08:39.876Z,2.27
2022-12-25T01:09:11.279Z,2.06
2022-12-25T01:09:42.683Z,2.07
2022-12-25T01:10:14.102Z,2.05
2022-12-25T01:10:45.502Z,1.68
2022-12-25T01:11:16.894Z,2.04
2022-12-25T01:11:48.327Z,1.85
2022-12-25T01:12:19.751Z,1.89
2022-12-25T01:12:51.171Z,2.07
2022-12-25T01:13:22.575Z,1.91
2022-12-25T01:13:54.125Z,2.11
2022-12-25T01:14:25.543Z,1.90
2022-12-25T01:14:56.908Z,2.19
2022-12-25T01:15:28.317Z,2.23
2022-12-25T01:15:59.748Z,2.02
2022-12-25T01:16:31.706Z,2.21
2022-12-25T01:17:03.162Z,2.20
2022-12-25T01:17:34.553Z,2.44
2022-12-25T01:18:08.014Z,2.11
2022-12-25T01:18:40.622Z,2.15
2022-12-25T01:19:12.201Z,1.61
2022-12-25T01:19:43.591Z,1.79
2022-12-25T01:20:15.004Z,1.87
2022-12-25T01:20:46.423Z,2.14
2022-12-25T01:21:17.835Z,2.64
2022-12-25T01:21:49.232Z,2.57
2022-12-25T01:22:20.629Z,2.02
2022-12-25T01:22:52.046Z,1.80
2022-12-25T01:23:23.470Z,2.01
2022-12-25T01:23:54.890Z,2.03
2022-12-25T01:24:26.342Z,2.01
2022-12-25T01:24:57.732Z,2.11
2022-12-25T01:25:29.121Z,1.91
2022-12-25T01:26:00.531Z,2.02
2022-12-25T01:26:31.952Z,1.88
2022-12-25T01:27:03.348Z,2.27
2022-12-25T01:27:34.751Z,2.02
2022-12-25T01:28:06.171Z,2.21
2022-12-25T01:28:37.623Z,2.04
2022-12-25T01:29:09.020Z,1.95
2022-12-25T01:29:40.517Z,1.89
2022-12-25T01:30:11.988Z,2.07
2022-12-25T01:30:43.483Z,1.70
2022-12-25T01:31:15.014Z,1.88
2022-12-25T01:31:46.581Z,1.64
2022-12-25T01:32:18.040Z,1.86
2022-12-25T01:32:49.472Z,1.56
2022-12-25T01:33:20.899Z,2.05
2022-12-25T01:33:52.316Z,1.59
2022-12-25T01:34:23.723Z,1.52
2022-12-25T01:34:56.414Z,1.75
2022-12-25T01:35:27.940Z,1.91
2022-12-25T01:35:59.390Z,2.27
2022-12-25T01:36:30.803Z,1.99
2022-12-25T01:37:02.232Z,1.89
2022-12-25T01:37:33.633Z,1.93
2022-12-25T01:38:05.035Z,1.83
2022-12-25T01:38:36.437Z,1.79
2022-12-25T01:39:07.848Z,1.72
2022-12-25T01:39:39.320Z,2.01
2022-12-25T01:40:10.786Z,1.54
2022-12-25T01:40:42.202Z,1.70
2022-12-25T01:41:13.626Z,1.61
2022-12-25T01:41:45.034Z,1.69
2022-12-25T01:42:16.458Z,1.75
2022-12-25T01:42:47.885Z,1.64
2022-12-25T01:43:19.303Z,2.29
2022-12-25T01:43:50.744Z,2.10
2022-12-25T01:44:22.136Z,1.76
2022-12-25T01:44:53.557Z,1.75
2022-12-25T01:45:25.062Z,1.83
2022-12-25T01:45:56.553Z,2.10
2022-12-25T01:46:28.022Z,2.05
2022-12-25T01:46:59.431Z,1.77
2022-12-25T01:47:30.869Z,2.15
2022-12-25T01:48:02.283Z,1.71
2022-12-25T01:48:33.699Z,1.63
2022-12-25T01:49:05.106Z,1.52
2022-12-25T01:49:36.516Z,1.69
2022-12-25T01:50:07.916Z,1.63
2022-12-25T01:50:39.408Z,1.85
2022-12-25T01:51:10.809Z,1.95
2022-12-25T01:51:42.222Z,2.10
2022-12-25T01:52:14.911Z,1.61
2022-12-25T01:52:47.883Z,1.55
2022-12-25T01:53:19.294Z,2.09
2022-12-25T01:53:50.756Z,1.55
2022-12-25T01:54:22.208Z,1.35
2022-12-25T01:54:53.711Z,1.56
2022-12-25T01:55:25.122Z,1.43
2022-12-25T01:55:56.635Z,1.61
2022-12-25T01:56:28.056Z,1.60
2022-12-25T01:56:59.454Z,1.99
2022-12-25T01:57:30.855Z,1.78
2022-12-25T01:58:02.265Z,1.72
2022-12-25T01:58:33.660Z,1.66
2022-12-25T01:59:05.093Z,1.87
2022-12-25T01:59:36.519Z,1.72
2022-12-25T02:00:07.917Z,1.67
2022-12-25T02:00:39.382Z,1.79
2022-12-25T02:01:11.037Z,1.88
2022-12-25T02:01:42.652Z,1.68
2022-12-25T02:02:14.249Z,1.35
2022-12-25T02:02:45.915Z,1.56
2022-12-25T02:03:17.469Z,1.53
2022-12-25T02:03:48.961Z,1.46
2022-12-25T02:04:20.384Z,1.70
2022-12-25T02:04:51.807Z,1.61
2022-12-25T02:05:23.233Z,1.72
2022-12-25T02:05:54.667Z,1.53
2022-12-25T02:06:26.190Z,1.84
2022-12-25T02:06:57.589Z,1.43
2022-12-25T02:07:28.987Z,1.60
2022-12-25T02:08:00.381Z,1.57
2022-12-25T02:08:31.779Z,1.41
2022-12-25T02:09:03.194Z,1.47
2022-12-25T02:09:34.589Z,1.90
2022-12-25T02:10:05.987Z,1.95
2022-12-25T02:10:37.419Z,1.85
2022-12-25T02:11:08.826Z,1.80
2022-12-25T02:11:40.357Z,1.45
2022-12-25T02:12:11.784Z,1.43
2022-12-25T02:12:43.175Z,1.07
2022-12-25T02:13:14.565Z,1.38
2022-12-25T02:13:45.959Z,1.74
2022-12-25T02:14:17.355Z,1.47
2022-12-25T02:14:48.825Z,1.33
2022-12-25T02:15:20.215Z,1.49
2022-12-25T02:15:51.615Z,1.82
2022-12-25T02:16:23.141Z,1.45
2022-12-25T02:16:57.652Z,1.82
2022-12-25T02:17:30.403Z,1.62
2022-12-25T02:18:01.804Z,1.41
2022-12-25T02:18:33.216Z,1.40
2022-12-25T02:19:04.634Z,1.50
2022-12-25T02:19:36.051Z,1.47
2022-12-25T02:20:07.458Z,1.57
2022-12-25T02:20:38.845Z,1.37
2022-12-25T02:21:10.267Z,1.51
2022-12-25T02:21:41.764Z,1.72
2022-12-25T02:22:13.289Z,1.83
2022-12-25T02:22:44.692Z,1.70
2022-12-25T02:23:16.093Z,1.60
2022-12-25T02:23:47.494Z,1.50
2022-12-25T02:24:18.894Z,1.54
2022-12-25T02:24:50.289Z,1.80
2022-12-25T02:25:21.707Z,1.43
2022-12-25T02:25:53.107Z,1.39
2022-12-25T02:26:24.494Z,1.48
2022-12-25T02:26:55.940Z,1.45
2022-12-25T02:27:27.437Z,1.46
2022-12-25T02:27:58.853Z,1.52
2022-12-25T02:28:30.266Z,1.69
2022-12-25T02:29:01.718Z,1.77
2022-12-25T02:29:33.123Z,1.49
2022-12-25T02:30:04.528Z,1.61
2022-12-25T02:30:35.955Z,1.49
2022-12-25T02:31:07.363Z,1.86
2022-12-25T02:31:38.797Z,1.57
2022-12-25T02:32:10.249Z,1.31
2022-12-25T02:32:41.830Z,1.75
2022-12-25T02:33:13.226Z,1.48
2022-12-25T02:33:44.648Z,1.41
2022-12-25T02:34:16.043Z,1.77
2022-12-25T02:34:47.478Z,1.50
2022-12-25T02:35:18.923Z,1.41
2022-12-25T02:35:50.313Z,1.31
2022-12-25T02:36:21.716Z,1.51
2022-12-25T02:36:53.132Z,1.50
2022-12-25T02:37:24.534Z,1.29
2022-12-25T02:37:56.085Z,1.35
2022-12-25T02:38:27.474Z,1.39
2022-12-25T02:38:58.871Z,1.29
2022-12-25T02:39:30.265Z,1.59
2022-12-25T02:40:01.687Z,1.44
2022-12-25T02:40:33.080Z,1.66
2022-12-25T02:41:04.475Z,1.40
2022-12-25T02:41:35.898Z,1.38
2022-12-25T02:42:07.297Z,1.61
2022-12-25T02:42:38.705Z,1.42
2022-12-25T02:43:10.152Z,1.17
2022-12-25T02:43:41.546Z,1.33
2022-12-25T02:44:12.946Z,1.46
2022-12-25T02:44:44.372Z,1.34
2022-12-25T02:45:15.779Z,1.34
2022-12-25T02:45:47.343Z,1.21
2022-12-25T02:46:18.890Z,1.21
2022-12-25T02:46:50.379Z,1.55
2022-12-25T02:47:21.787Z,1.41
2022-12-25T02:47:53.206Z,1.26
2022-12-25T02:48:24.642Z,1.11
2022-12-25T02:48:56.084Z,1.43
2022-12-25T02:49:27.496Z,1.70
2022-12-25T02:49:58.907Z,1.17
2022-12-25T02:50:30.318Z,1.41
2022-12-25T02:51:01.731Z,1.41
2022-12-25T02:51:33.163Z,1.45
2022-12-25T02:52:04.573Z,1.25
2022-12-25T02:52:36.021Z,1.23
2022-12-25T02:53:07.447Z,1.39
2022-12-25T02:53:39.000Z,1.46
2022-12-25T02:54:10.418Z,1.47
2022-12-25T02:54:41.830Z,1.29
2022-12-25T02:55:13.230Z,1.30
2022-12-25T02:55:44.641Z,1.33
2022-12-25T02:56:16.107Z,1.46
2022-12-25T02:56:47.510Z,1.29
2022-12-25T02:57:18.961Z,1.44
2022-12-25T02:57:50.355Z,1.41
2022-12-25T02:58:21.750Z,1.54
2022-12-25T02:58:53.239Z,1.28
2022-12-25T02:59:24.634Z,1.42
2022-12-25T02:59:56.050Z,1.32
2022-12-25T03:00:27.465Z,1.23
2022-12-25T03:00:58.944Z,1.31
2022-12-25T03:01:30.576Z,1.21
2022-12-25T03:02:02.176Z,1.23
2022-12-25T03:02:33.725Z,0.99
2022-12-25T03:03:05.438Z,0.98
2022-12-25T03:03:36.979Z,1.14
2022-12-25T03:04:08.529Z,1.46
2022-12-25T03:04:39.928Z,1.49
2022-12-25T03:05:11.364Z,1.16
2022-12-25T03:05:42.795Z,1.26
2022-12-25T03:06:14.214Z,1.61
2022-12-25T03:06:45.646Z,1.30
2022-12-25T03:07:17.079Z,1.30
2022-12-25T03:07:48.511Z,1.22
2022-12-25T03:08:19.926Z,1.15
2022-12-25T03:08:51.335Z,1.32
2022-12-25T03:09:22.792Z,1.37
2022-12-25T03:09:54.195Z,1.20
2022-12-25T03:10:25.593Z,1.05
2022-12-25T03:10:56.992Z,1.29
2022-12-25T03:11:28.479Z,1.34
2022-12-25T03:11:59.894Z,1.20
2022-12-25T03:12:31.293Z,1.12
2022-12-25T03:13:02.706Z,1.26
2022-12-25T03:13:34.103Z,1.25
2022-12-25T03:14:05.495Z,1.39
2022-12-25T03:14:36.968Z,1.28
2022-12-25T03:15:08.378Z,1.04
2022-12-25T03:15:39.796Z,1.30
2022-12-25T03:16:11.249Z,1.36
2022-12-25T03:16:42.705Z,1.00
2022-12-25T03:17:14.214Z,1.44
2022-12-25T03:17:45.710Z,1.26
2022-12-25T03:18:17.113Z,1.01
2022-12-25T03:18:48.519Z,0.95
2022-12-25T03:19:19.911Z,1.50
2022-12-25T03:19:51.346Z,1.10
2022-12-25T03:20:22.745Z,1.22
2022-12-25T03:20:54.145Z,1.19
2022-12-25T03:21:25.545Z,1.35
2022-12-25T03:21:56.948Z,1.17
2022-12-25T03:22:28.361Z,1.20
2022-12-25T03:22:59.757Z,0.86
2022-12-25T03:23:31.161Z,1.04
2022-12-25T03:24:02.559Z,1.24
2022-12-25T03:24:33.970Z,1.27
2022-12-25T03:25:05.423Z,1.02
2022-12-25T03:25:36.823Z,1.15
2022-12-25T03:26:08.242Z,1.15
2022-12-25T03:26:39.643Z,0.98
2022-12-25T03:27:11.058Z,0.85
2022-12-25T03:27:42.478Z,0.99
2022-12-25T03:28:13.875Z,1.06
2022-12-25T03:28:45.313Z,1.21
2022-12-25T03:29:16.722Z,1.09
2022-12-25T03:29:48.126Z,1.10
2022-12-25T03:30:19.651Z,1.41
2022-12-25T03:30:51.074Z,1.33
2022-12-25T03:31:22.553Z,1.08
2022-12-25T03:31:53.997Z,0.87
2022-12-25T03:32:25.404Z,1.39
2022-12-25T03:32:56.792Z,1.26
2022-12-25T03:33:45.331Z,1.25
2022-12-25T03:34:17.160Z,1.35
2022-12-25T03:34:48.589Z,1.15
2022-12-25T03:35:20.087Z,1.12
2022-12-25T03:35:51.491Z,0.95
2022-12-25T03:36:22.905Z,0.95
2022-12-25T03:36:54.323Z,1.02
2022-12-25T03:37:25.713Z,1.16
2022-12-25T03:37:57.107Z,0.98
2022-12-25T03:38:28.525Z,1.19
2022-12-25T03:38:59.921Z,1.14
2022-12-25T03:39:31.347Z,1.31
2022-12-25T03:40:02.766Z,1.05
2022-12-25T03:40:34.181Z,0.91
2022-12-25T03:41:05.588Z,1.14
2022-12-25T03:41:37.014Z,0.92
2022-12-25T03:42:08.434Z,0.83
2022-12-25T03:42:39.827Z,0.96
2022-12-25T03:43:11.332Z,1.29
2022-12-25T03:43:42.731Z,1.02
2022-12-25T03:44:14.131Z,1.05
2022-12-25T03:44:45.558Z,0.85
2022-12-25T03:45:16.965Z,0.85
2022-12-25T03:45:48.421Z,0.90
2022-12-25T03:46:19.890Z,0.87
2022-12-25T03:46:51.330Z,1.22
2022-12-25T03:47:22.735Z,1.11
2022-12-25T03:47:54.133Z,0.96
2022-12-25T03:48:25.525Z,0.91
2022-12-25T03:48:56.922Z,1.13
2022-12-25T03:49:28.322Z,0.77
2022-12-25T03:49:59.738Z,0.91
2022-12-25T03:50:31.142Z,1.04
2022-12-25T03:51:02.670Z,0.72
2022-12-25T03:51:34.064Z,1.52
2022-12-25T03:52:05.478Z,1.12
2022-12-25T03:52:36.902Z,1.18
2022-12-25T03:53:08.321Z,0.99
2022-12-25T03:53:39.723Z,1.15
2022-12-25T03:54:11.127Z,1.04
2022-12-25T03:54:42.543Z,0.90
2022-12-25T03:55:13.951Z,1.22
2022-12-25T03:55:45.369Z,1.10
2022-12-25T03:56:16.833Z,1.09
2022-12-25T03:56:48.235Z,1.00
2022-12-25T03:57:19.640Z,0.99
2022-12-25T03:57:51.034Z,1.09
2022-12-25T03:58:22.427Z,1.26
2022-12-25T03:58:53.842Z,1.13
2022-12-25T03:59:25.250Z,0.90
2022-12-25T03:59:56.638Z,0.77
2022-12-25T04:00:28.049Z,0.69
2022-12-25T04:00:59.451Z,0.80
2022-12-25T04:01:31.100Z,1.09
2022-12-25T04:02:02.680Z,1.10
2022-12-25T04:02:34.341Z,1.14
2022-12-25T04:03:05.943Z,1.26
2022-12-25T04:03:37.435Z,0.99
2022-12-25T04:04:08.867Z,0.86
2022-12-25T04:04:40.668Z,1.06
2022-12-25T04:05:12.093Z,0.73
2022-12-25T04:05:43.502Z,0.96
2022-12-25T04:06:14.915Z,0.94
2022-12-25T04:06:46.391Z,1.26
2022-12-25T04:07:17.799Z,1.30
2022-12-25T04:07:49.206Z,1.04
2022-12-25T04:08:20.615Z,1.03
2022-12-25T04:08:52.051Z,1.20
2022-12-25T04:09:23.479Z,1.01
2022-12-25T04:09:54.873Z,1.25
2022-12-25T04:10:26.293Z,0.97
2022-12-25T04:10:57.730Z,0.94
2022-12-25T04:11:29.143Z,1.06
2022-12-25T04:12:02.910Z,1.11
2022-12-25T04:12:34.716Z,0.73
2022-12-25T04:13:06.122Z,1.07
2022-12-25T04:13:37.535Z,1.09
2022-12-25T04:14:08.938Z,0.93
2022-12-25T04:14:40.358Z,0.94
2022-12-25T04:15:11.783Z,0.86
2022-12-25T04:15:43.239Z,0.99
2022-12-25T04:16:14.716Z,0.86
2022-12-25T04:16:46.222Z,0.74
2022-12-25T04:17:17.684Z,1.08
2022-12-25T04:17:49.077Z,1.20
2022-12-25T04:18:20.473Z,1.21
2022-12-25T04:18:51.881Z,1.19
2022-12-25T04:19:23.316Z,0.96
2022-12-25T04:19:54.718Z,0.87
2022-12-25T04:20:26.120Z,1.28
2022-12-25T04:20:57.524Z,0.88
2022-12-25T04:21:28.919Z,0.76
2022-12-25T04:22:00.436Z,0.97
2022-12-25T04:22:31.942Z,1.27
2022-12-25T04:23:03.357Z,0.98
2022-12-25T04:23:34.764Z,0.98
2022-12-25T04:24:06.226Z,0.74
2022-12-25T04:24:37.650Z,0.79
2022-12-25T04:25:09.071Z,0.74
2022-12-25T04:25:40.506Z,0.71
2022-12-25T04:26:11.905Z,0.99
2022-12-25T04:26:43.312Z,0.80
2022-12-25T04:27:14.725Z,0.86
2022-12-25T04:27:46.238Z,1.03
2022-12-25T04:28:17.634Z,0.83
2022-12-25T04:28:49.038Z,0.81
2022-12-25T04:29:20.465Z,0.89
2022-12-25T04:29:51.905Z,0.91
2022-12-25T04:30:23.309Z,1.10
2022-12-25T04:30:54.740Z,0.82
2022-12-25T04:31:26.246Z,0.96
2022-12-25T04:31:57.723Z,0.94
2022-12-25T04:32:29.139Z,0.90
2022-12-25T04:33:00.594Z,0.70
2022-12-25T04:33:31.991Z,0.80
2022-12-25T04:34:03.410Z,0.93
2022-12-25T04:34:34.823Z,0.78
2022-12-25T04:35:06.214Z,0.75
2022-12-25T04:35:37.616Z,1.19
2022-12-25T04:36:09.058Z,1.26
2022-12-25T04:36:40.495Z,0.99
2022-12-25T04:37:11.914Z,0.98
2022-12-25T04:37:43.327Z,0.92
2022-12-25T04:38:14.844Z,1.09
2022-12-25T04:38:46.254Z,0.87
2022-12-25T04:39:17.656Z,0.79
2022-12-25T04:39:49.071Z,0.86
2022-12-25T04:40:20.506Z,0.96
2022-12-25T04:40:51.893Z,0.89
2022-12-25T04:41:23.294Z,0.61
2022-12-25T04:41:54.739Z,0.73
2022-12-25T04:42:26.135Z,0.86
2022-12-25T04:42:57.522Z,0.98
2022-12-25T04:43:28.979Z,1.07
2022-12-25T04:44:00.395Z,0.97
2022-12-25T04:44:31.798Z,0.94
2022-12-25T04:45:03.216Z,0.84
2022-12-25T04:45:34.625Z,0.92
2022-12-25T04:46:06.057Z,1.06
2022-12-25T04:46:37.535Z,0.87
2022-12-25T04:47:11.511Z,0.87
2022-12-25T04:47:43.298Z,0.76
2022-12-25T04:48:14.714Z,0.87
2022-12-25T04:48:46.161Z,0.89
2022-12-25T04:49:17.561Z,0.79
2022-12-25T04:49:48.978Z,1.12
2022-12-25T04:50:20.397Z,0.91
2022-12-25T04:50:51.804Z,0.40
2022-12-25T04:51:23.244Z,0.71
2022-12-25T04:51:54.653Z,1.04
2022-12-25T04:52:26.055Z,0.94
2022-12-25T04:52:57.466Z,0.80
2022-12-25T04:53:28.870Z,0.97
2022-12-25T04:54:00.399Z,0.84
2022-12-25T04:54:31.809Z,0.75
2022-12-25T04:55:03.204Z,0.82
2022-12-25T04:55:34.621Z,0.85
2022-12-25T04:56:06.023Z,0.94
2022-12-25T04:56:43.458Z,0.83
2022-12-25T04:57:17.094Z,0.69
2022-12-25T04:57:48.505Z,0.93
2022-12-25T04:58:19.900Z,0.98
2022-12-25T04:58:51.458Z,1.09
2022-12-25T04:59:22.865Z,0.88
2022-12-25T04:59:54.255Z,0.47
2022-12-25T05:00:25.683Z,0.84
2022-12-25T05:00:57.098Z,1.18
2022-12-25T05:01:28.570Z,0.77
2022-12-25T05:02:00.229Z,0.75
2022-12-25T05:02:31.809Z,0.88
2022-12-25T05:03:03.468Z,1.07
2022-12-25T05:03:35.028Z,0.76
2022-12-25T05:04:06.622Z,0.93
2022-12-25T05:04:38.031Z,0.93
2022-12-25T05:05:09.429Z,0.90
2022-12-25T05:05:40.829Z,0.61
2022-12-25T05:06:12.219Z,0.84
2022-12-25T05:06:43.612Z,0.84
2022-12-25T05:07:15.017Z,1.00
2022-12-25T05:07:46.438Z,0.95
2022-12-25T05:08:17.841Z,0.82
2022-12-25T05:08:49.306Z,0.68
2022-12-25T05:09:20.774Z,0.78
2022-12-25T05:09:52.209Z,0.94
2022-12-25T05:10:23.606Z,0.85
2022-12-25T05:10:55.003Z,0.59
2022-12-25T05:11:26.397Z,0.73
2022-12-25T05:11:57.801Z,0.75
2022-12-25T05:12:29.189Z,0.80
2022-12-25T05:13:00.607Z,0.98
2022-12-25T05:13:32.006Z,0.80
2022-12-25T05:14:03.582Z,0.93
2022-12-25T05:14:35.234Z,0.82
2022-12-25T05:15:06.655Z,0.81
2022-12-25T05:15:38.096Z,0.96
2022-12-25T05:16:09.585Z,0.80
2022-12-25T05:16:41.037Z,1.01
2022-12-25T05:17:12.450Z,0.91
2022-12-25T05:17:43.857Z,0.90
2022-12-25T05:18:15.250Z,0.74
2022-12-25T05:18:46.679Z,0.91
2022-12-25T05:19:18.075Z,0.66
2022-12-25T05:19:49.649Z,0.77
2022-12-25T05:20:21.047Z,0.91
2022-12-25T05:20:52.460Z,0.72
2022-12-25T05:21:23.851Z,0.72
2022-12-25T05:21:55.264Z,0.74
2022-12-25T05:22:26.669Z,0.98
2022-12-25T05:22:58.093Z,1.07
2022-12-25T05:23:29.483Z,1.12
2022-12-25T05:24:00.888Z,0.92
2022-12-25T05:24:32.300Z,1.02
2022-12-25T05:25:03.769Z,0.91
2022-12-25T05:25:35.157Z,1.04
2022-12-25T05:26:06.569Z,1.00
2022-12-25T05:26:37.973Z,0.55
2022-12-25T05:27:09.379Z,1.04
2022-12-25T05:27:40.773Z,0.68
2022-12-25T05:28:12.162Z,0.65
2022-12-25T05:28:43.552Z,0.96
2022-12-25T05:29:14.970Z,0.84
2022-12-25T05:29:46.386Z,0.84
2022-12-25T05:30:17.843Z,0.89
2022-12-25T05:30:49.310Z,0.85
2022-12-25T05:31:20.869Z,0.74
2022-12-25T05:31:52.333Z,0.76
2022-12-25T05:32:23.752Z,0.70
2022-12-25T05:32:55.152Z,0.86
2022-12-25T05:33:26.556Z,0.82
2022-12-25T05:33:57.963Z,0.89
2022-12-25T05:34:29.372Z,0.84
2022-12-25T05:35:00.798Z,0.81
2022-12-25T05:35:32.289Z,0.70
2022-12-25T05:36:03.713Z,0.63
2022-12-25T05:36:35.108Z,0.83
2022-12-25T05:37:06.528Z,0.81
2022-12-25T05:37:37.942Z,0.79
2022-12-25T05:38:09.362Z,0.62
2022-12-25T05:38:40.771Z,0.58
2022-12-25T05:39:12.186Z,0.91
2022-12-25T05:39:43.600Z,1.06
2022-12-25T05:40:15.042Z,0.48
2022-12-25T05:40:46.498Z,0.93
2022-12-25T05:41:17.906Z,0.65
2022-12-25T05:41:49.342Z,0.65
2022-12-25T05:42:20.757Z,0.69
2022-12-25T05:42:52.156Z,0.79
2022-12-25T05:43:23.579Z,0.63
2022-12-25T05:43:54.982Z,0.84
2022-12-25T05:44:26.386Z,0.66
2022-12-25T05:44:57.792Z,0.70
2022-12-25T05:45:29.194Z,0.71
2022-12-25T05:46:00.731Z,0.88
2022-12-25T05:46:32.200Z,1.06
2022-12-25T05:47:03.681Z,0.71
2022-12-25T05:47:35.145Z,0.65
2022-12-25T05:48:06.554Z,0.73
2022-12-25T05:48:37.951Z,0.90
2022-12-25T05:49:09.364Z,0.59
2022-12-25T05:49:40.770Z,0.73
2022-12-25T05:50:12.171Z,0.78
2022-12-25T05:50:43.587Z,0.79
2022-12-25T05:51:15.108Z,0.50
2022-12-25T05:51:46.534Z,0.65
2022-12-25T05:52:17.930Z,0.47
2022-12-25T05:52:49.329Z,0.60
2022-12-25T05:53:20.739Z,0.88
2022-12-25T05:53:52.135Z,0.78
2022-12-25T05:54:23.541Z,0.49
2022-12-25T05:54:54.954Z,0.69
2022-12-25T05:55:26.351Z,0.64
2022-12-25T05:55:57.749Z,0.77
2022-12-25T05:56:29.274Z,0.86
2022-12-25T05:57:00.746Z,0.87
2022-12-25T05:57:32.169Z,0.63
2022-12-25T05:58:03.574Z,0.91
2022-12-25T05:58:34.964Z,0.65
2022-12-25T05:59:06.387Z,0.93
2022-12-25T05:59:37.784Z,0.76
2022-12-25T06:00:09.259Z,0.55
2022-12-25T06:00:40.673Z,0.84
2022-12-25T06:01:12.137Z,0.63
2022-12-25T06:01:43.728Z,0.85
2022-12-25T06:02:15.364Z,0.73
2022-12-25T06:02:47.009Z,0.88
2022-12-25T06:03:18.588Z,0.66
2022-12-25T06:03:50.168Z,0.75
2022-12-25T06:04:21.643Z,1.05
2022-12-25T06:04:53.062Z,0.92
2022-12-25T06:05:24.450Z,0.57
2022-12-25T06:05:55.903Z,0.61
2022-12-25T06:06:27.326Z,0.47
2022-12-25T06:06:58.797Z,0.69
2022-12-25T06:07:30.206Z,0.51
2022-12-25T06:08:01.639Z,0.71
2022-12-25T06:08:33.066Z,0.72
2022-12-25T06:09:04.469Z,0.72
2022-12-25T06:09:35.873Z,0.64
2022-12-25T06:10:07.266Z,0.85
2022-12-25T06:10:38.682Z,0.48
2022-12-25T06:11:10.079Z,0.49
2022-12-25T06:11:41.499Z,0.57
2022-12-25T06:12:13.012Z,0.45
2022-12-25T06:12:44.448Z,0.56
2022-12-25T06:13:15.869Z,0.51
2022-12-25T06:13:47.291Z,0.57
2022-12-25T06:14:18.742Z,0.59
2022-12-25T06:14:50.166Z,0.74
2022-12-25T06:15:21.555Z,0.50
2022-12-25T06:15:53.026Z,0.72
2022-12-25T06:16:24.546Z,0.68
2022-12-25T06:16:56.040Z,0.66
2022-12-25T06:17:27.659Z,0.58
2022-12-25T06:17:59.076Z,0.88
2022-12-25T06:18:30.485Z,0.90
2022-12-25T06:19:01.882Z,0.72
2022-12-25T06:19:33.294Z,0.67
2022-12-25T06:20:04.717Z,0.63
2022-12-25T06:20:36.150Z,0.71
2022-12-25T06:21:07.556Z,0.88
2022-12-25T06:21:38.959Z,0.54
2022-12-25T06:22:10.362Z,0.34
2022-12-25T06:22:42.023Z,0.55
2022-12-25T06:23:13.745Z,0.57
2022-12-25T06:23:45.280Z,0.67
2022-12-25T06:24:21.230Z,0.48
2022-12-25T06:24:53.054Z,0.68
2022-12-25T06:25:24.591Z,0.86
2022-12-25T06:25:56.007Z,0.86
2022-12-25T06:26:27.421Z,0.63
2022-12-25T06:26:58.818Z,0.70
2022-12-25T06:27:30.227Z,0.70
2022-12-25T06:28:01.707Z,0.51
2022-12-25T06:28:33.122Z,0.50
2022-12-25T06:29:04.508Z,0.71
2022-12-25T06:29:35.898Z,0.58
2022-12-25T06:30:07.304Z,0.66
2022-12-25T06:30:38.703Z,0.63
2022-12-25T06:31:10.189Z,0.55
2022-12-25T06:31:41.692Z,0.59
2022-12-25T06:32:13.115Z,0.81
2022-12-25T06:32:44.521Z,0.72
2022-12-25T06:33:15.963Z,0.68
2022-12-25T06:33:47.417Z,1.01
2022-12-25T06:34:18.893Z,0.70
2022-12-25T06:34:50.283Z,0.46
2022-12-25T06:35:21.696Z,0.57
2022-12-25T06:35:53.099Z,0.44
2022-12-25T06:36:24.519Z,0.61
2022-12-25T06:36:55.914Z,0.61
2022-12-25T06:37:27.305Z,0.78
2022-12-25T06:37:58.737Z,0.63
2022-12-25T06:38:30.327Z,0.59
2022-12-25T06:39:01.737Z,0.58
2022-12-25T06:39:33.154Z,0.56
2022-12-25T06:40:04.557Z,0.67
2022-12-25T06:40:35.967Z,0.85
2022-12-25T06:41:07.370Z,0.35
2022-12-25T06:41:38.787Z,0.49
2022-12-25T06:42:10.181Z,0.70
2022-12-25T06:42:41.578Z,0.78
2022-12-25T06:43:12.994Z,0.56
2022-12-25T06:43:44.422Z,0.52
2022-12-25T06:44:16.013Z,0.47
2022-12-25T06:44:47.417Z,0.35
2022-12-25T06:45:18.837Z,0.58
2022-12-25T06:45:50.296Z,0.72
2022-12-25T06:46:21.814Z,0.98
2022-12-25T06:46:53.282Z,0.79
2022-12-25T06:47:24.714Z,0.64
2022-12-25T06:47:56.110Z,0.76
2022-12-25T06:48:27.507Z,0.85
2022-12-25T06:48:58.958Z,0.64
2022-12-25T06:49:30.354Z,0.52
2022-12-25T06:50:01.781Z,0.47
2022-12-25T06:50:33.175Z,0.54
2022-12-25T06:51:04.574Z,0.44
2022-12-25T06:51:35.988Z,0.50
2022-12-25T06:52:07.391Z,0.71
2022-12-25T06:52:38.797Z,0.85
2022-12-25T06:53:10.984Z,1.07
2022-12-25T06:53:42.397Z,0.69
2022-12-25T06:54:13.882Z,0.56
2022-12-25T06:54:45.294Z,0.55
2022-12-25T06:55:16.717Z,0.76
2022-12-25T06:55:48.141Z,0.41
2022-12-25T06:56:19.557Z,0.39
2022-12-25T06:56:50.946Z,0.64
2022-12-25T06:57:22.360Z,0.69
2022-12-25T06:57:53.772Z,0.60
2022-12-25T06:58:25.178Z,0.56
2022-12-25T06:58:56.676Z,0.64
2022-12-25T06:59:28.091Z,0.41